Flight Briefing for CMB831

Departure Arrival
Norfolk Naval Station (Chambers Field) (KNGU)
Click to view FAA NOTAMS
KeflavĂ­k International Airport (BIKF)
Click to view FAA NOTAMS
Departure Time Arrival Time
N/A N/A
Aircraft Distance
B757-200SF 2503nm
Departure METAR Arrival METAR
KNGU 260859Z 02021G27KT 7SM OVC016 08/05 A3002 RMK AO2 PK WND 02029/0822 RAE27 SLP164 P0000 60007 T00780050 53008 BIKF 260930Z 24021KT 9999 VCSH FEW019CB SCT035 BKN047 04/M00 Q1009
Suggested Route
SBY J79 JFK J37 ALB J563 HO PORGY 5950N N6140 EPENI ELDIS ELDIS2M


View recent IFR Routes data
Notes
USTRANSCOM CONTRACT FLIGHT

Charts and Procedures

Charts for KNGU
No chart available
Charts for BIKF
No chart available

Windy.com Weather Map